Latest Weather Observations for Maria Island

IDT60801

Issued at 12:11 pm EDT Friday 18 October 2019 (issued every 10 minutes, with the page automatically refreshed every 10 minutes)

About weather observations | Map of weather stations | Latest weather observations for TAS | Other Formats
Station Details ID: 092124 Name: MARIA ISLAND (POINT LESUEUR) Lat: -42.66 Lon: 148.02 Height: 28.0 m
Data from the previous 72 hours. | See also: Recent months at Maria Island
Date/Time
EDT
Temp
°C
App
Temp
°C
Dew
Point
°C
Rel
Hum
%
Delta-T
°C
Wind Press
QNH
hPa
Press
MSL
hPa
Rain since
9am
mm
Dir  Spd
km/h
Gust
km/h
Spd
kts
Gust
kts
18/12:00pm 14.9 5.5 7.2 60 3.8 NNW 46 56 25 30 1001.8 1001.7 0.0
18/11:30am 14.0 6.1 7.8 66 3.1 NNW 39 48 21 26 1002.3 1002.3 0.0
18/11:00am 13.9 6.8 7.9 67 3.0 NNW 35 41 19 22 1003.2 1003.2 0.0
18/10:30am 12.7 5.6 6.5 66 3.0 N 33 39 18 21 1004.2 1004.2 0.0
18/10:00am 12.3 5.3 6.8 69 2.6 N 33 41 18 22 1004.8 1004.8 0.0
18/09:30am 11.7 4.7 6.8 72 2.3 N 33 41 18 22 1005.2 1005.2 0.0
18/09:00am 11.1 4.2 6.6 74 2.1 N 32 37 17 20 1005.6 1005.6 0.4
18/08:30am 10.4 3.3 6.5 77 1.8 N 33 39 18 21 1006.4 1006.4 0.4
18/08:00am 10.1 3.3 6.8 80 1.6 N 32 37 17 20 1006.8 1006.8 0.4
18/07:30am 9.6 1.7 6.3 80 1.5 N 37 43 20 23 1006.7 1006.7 0.4
18/07:00am 9.9 4.9 6.6 80 1.5 NNW 22 33 12 18 1006.9 1006.9 0.4
18/06:30am 10.0 5.1 6.7 80 1.5 N 22 28 12 15 1006.7 1006.7 0.4
18/06:00am 9.8 5.2 6.7 81 1.5 N 20 22 11 12 1006.7 1006.7 0.4
18/05:30am 9.9 4.0 5.9 76 1.8 N 26 30 14 16 1006.5 1006.5 0.4
18/05:00am 9.8 5.2 6.5 80 1.5 NNW 20 22 11 12 1006.8 1006.8 0.4
18/04:30am 9.7 6.2 7.3 85 1.1 N 15 19 8 10 1006.6 1006.6 0.4
18/04:00am 9.6 7.4 7.7 88 0.9 N 9 15 5 8 1007.1 1007.1 0.4
18/03:30am 9.4 6.5 8.2 92 0.6 NNW 13 17 7 9 1007.5 1007.5 0.4
18/03:00am 8.8 6.5 7.6 92 0.6 NW 9 11 5 6 1007.6 1007.6 0.4
18/02:30am 9.0 6.8 7.8 92 0.6 NNW 9 13 5 7 1007.9 1007.9 0.4
18/02:00am 8.8 6.9 7.6 92 0.6 NW 7 11 4 6 1008.1 1008.1 0.4
18/01:30am 9.0 6.8 7.8 92 0.6 WNW 9 9 5 5 1008.5 1008.5 0.4
18/01:00am 9.1 7.2 7.7 91 0.7 NW 7 11 4 6 1008.6 1008.6 0.4
18/12:30am 9.9 8.3 8.7 92 0.6 N 7 9 4 5 1008.5 1008.5 0.4
18/12:00am 9.3 7.1 7.9 91 0.7 NW 9 9 5 5 1008.7 1008.7 0.4
 
Date/Time
EDT
Temp
°C
App
Temp
°C
Dew
Point
°C
Rel
Hum
%
Delta-T
°C
Wind Press
QNH
hPa
Press
MSL
hPa
Rain since
9am
mm
Dir  Spd
km/h
Gust
km/h
Spd
kts
Gust
kts
17/11:30pm 9.6 7.5 8.2 91 0.7 N 9 11 5 6 1008.7 1008.7 0.4
17/11:00pm 9.4 7.3 8.2 92 0.6 WNW 9 13 5 7 1008.7 1008.7 0.4
17/10:30pm 9.4 6.8 7.8 90 0.8 WNW 11 13 6 7 1008.6 1008.6 0.4
17/10:00pm 10.2 8.7 8.5 89 0.8 WNW 6 7 3 4 1008.6 1008.6 0.2
17/09:30pm 10.0 8.4 7.9 87 1.0 WNW 6 9 3 5 1008.5 1008.5 0.2
17/09:00pm 11.2 10.5 8.4 83 1.4 ESE 2 6 1 3 1008.4 1008.4 0.2
17/08:30pm 11.4 10.3 8.4 82 1.5 E 4 4 2 2 1008.1 1008.1 0.2
17/08:00pm 11.4 10.6 8.3 81 1.5 E 2 4 1 2 1007.6 1007.6 0.2
17/07:30pm 11.6 10.4 8.1 79 1.7 E 4 6 2 3 1007.2 1007.2 0.2
17/07:00pm 12.2 10.1 8.1 76 2.0 E 9 13 5 7 1006.8 1006.8 0.2
17/06:30pm 12.4 10.4 8.5 77 1.9 E 9 13 5 7 1006.5 1006.5 0.2
17/06:00pm 12.4 10.4 8.7 78 1.9 ESE 9 13 5 7 1006.3 1006.3 0.2
17/05:30pm 11.8 9.3 8.1 78 1.8 SE 11 13 6 7 1006.1 1006.1 0.2
17/05:00pm 11.6 7.9 8.1 79 1.7 ESE 17 24 9 13 1006.0 1006.0 0.2
17/04:30pm 12.7 8.2 8.6 76 2.0 E 22 30 12 16 1005.6 1005.6 0.2
17/04:00pm 13.2 9.3 9.5 78 1.9 ESE 20 26 11 14 1005.4 1005.4 0.2
17/03:30pm 14.1 11.2 9.5 74 2.4 SSE 15 17 8 9 1005.1 1005.1 0.2
17/03:00pm 13.9 12.0 9.1 73 2.4 SSE 9 17 5 9 1005.2 1005.2 0.2
17/02:30pm 13.9 11.2 8.9 72 2.5 SE 13 22 7 12 1005.2 1005.2 0.2
17/02:00pm 13.5 9.9 9.9 79 1.9 SSW 19 20 10 11 1005.4 1005.4 0.2
17/01:30pm 13.3 9.5 9.7 79 1.8 SSW 20 22 11 12 1005.4 1005.4 0.2
17/01:00pm 13.0 9.1 9.6 80 1.7 SSW 20 24 11 13 1005.4 1005.4 0.0
17/12:30pm 13.0 9.3 9.6 80 1.7 SSW 19 20 10 11 1005.7 1005.7 0.0
17/12:00pm 12.4 8.5 8.7 78 1.9 SSW 19 22 10 12 1005.7 1005.7 0.0
17/11:30am 12.3 8.4 8.8 79 1.7 SSW 19 22 10 12 1005.8 1005.8 0.0
17/11:00am 11.8 7.9 8.5 80 1.6 SSW 19 22 10 12 1005.9 1005.9 0.0
17/10:30am 12.0 8.0 9.0 82 1.5 SSW 20 24 11 13 1006.0 1006.0 0.0
17/10:00am 11.4 7.3 8.8 84 1.3 SSW 20 24 11 13 1006.1 1006.1 0.0
17/09:30am 10.8 6.6 8.2 84 1.3 SSW 20 24 11 13 1006.2 1006.2 0.0
17/09:00am 10.3 6.0 7.9 85 1.2 SSW 20 22 11 12 1006.2 1006.2 11.8
17/08:30am 10.1 6.4 7.9 86 1.1 SSW 17 22 9 12 1006.3 1006.3 11.8
17/08:00am 9.6 5.2 7.5 87 1.0 SSW 20 24 11 13 1006.2 1006.2 11.8
17/07:30am 9.6 4.9 7.7 88 0.9 SSW 22 28 12 15 1005.9 1005.9 11.8
17/07:00am 9.5 5.3 7.6 88 0.9 SSW 19 24 10 13 1005.8 1005.8 11.8
17/06:30am 9.1 4.9 7.4 89 0.8 SSW 19 22 10 12 1005.8 1005.8 11.8
17/06:00am 8.9 5.0 7.0 88 0.9 SSW 17 22 9 12 1005.9 1005.9 11.8
17/05:30am 9.0 4.7 7.1 88 0.9 SSW 19 22 10 12 1005.7 1005.7 11.8
17/05:00am 9.2 5.7 7.3 88 0.9 SSW 15 20 8 11 1005.8 1005.8 11.8
17/04:30am 9.0 6.6 7.1 88 0.9 SW 9 11 5 6 1006.1 1006.1 11.8
17/04:00am 9.4 6.7 7.3 87 1.0 SW 11 15 6 8 1006.4 1006.4 11.8
17/03:30am 9.7 5.9 7.6 87 1.0 SW 17 20 9 11 1006.5 1006.5 11.8
17/03:00am 9.6 5.8 7.7 88 0.9 SSW 17 20 9 11 1006.6 1006.6 11.8
17/02:30am 9.6 6.3 7.9 89 0.8 SSW 15 19 8 10 1006.6 1006.6 11.8
17/02:00am 9.7 7.1 7.8 88 0.9 SW 11 17 6 9 1006.9 1006.9 11.8
17/01:30am 9.8 7.9 7.6 86 1.1 SSW 7 9 4 5 1007.1 1007.1 11.8
17/01:00am 9.8 7.2 7.9 88 0.9 ESE 11 13 6 7 1007.3 1007.3 11.8
17/12:30am 9.8 6.1 8.1 89 0.8 ESE 17 19 9 10 1007.5 1007.5 11.8
17/12:00am 9.8 6.1 8.1 89 0.8 ESE 17 20 9 11 1007.6 1007.6 11.8
 
Date/Time
EDT
Temp
°C
App
Temp
°C
Dew
Point
°C
Rel
Hum
%
Delta-T
°C
Wind Press
QNH
hPa
Press
MSL
hPa
Rain since
9am
mm
Dir  Spd
km/h
Gust
km/h
Spd
kts
Gust
kts
16/11:30pm 9.8 6.9 8.2 90 0.8 ESE 13 19 7 10 1007.7 1007.7 11.8
16/11:00pm 10.2 8.7 8.6 90 0.8 SE 6 9 3 5 1007.7 1007.7 11.8
16/10:30pm 10.1 7.3 8.5 90 0.8 SW 13 15 7 8 1007.7 1007.7 11.8
16/10:00pm 9.9 8.2 8.3 90 0.8 SSW 7 11 4 6 1007.8 1007.8 11.8
16/09:30pm 10.2 8.5 8.5 89 0.8 SSE 7 9 4 5 1007.8 1007.8 11.6
16/09:00pm 10.2 8.2 8.6 90 0.8 SSE 9 9 5 5 1008.0 1008.0 11.6
16/08:30pm 9.8 8.1 8.2 90 0.8 SSE 7 11 4 6 1007.8 1007.8 11.6
16/08:00pm 9.8 7.7 8.1 89 0.8 S 9 11 5 6 1007.9 1007.9 11.4
16/07:30pm 10.2 8.6 8.1 87 1.0 S 6 7 3 4 1007.9 1007.9 9.8
16/07:00pm 10.4 8.5 7.6 83 1.3 S 7 17 4 9 1007.9 1007.9 8.4
16/06:30pm 11.6 10.6 7.5 76 2.0 ENE 2 6 1 3 1007.5 1007.5 0.8
16/06:00pm 11.9 8.5 7.6 75 2.1 NNE 15 19 8 10 1007.5 1007.5 0.2
16/05:30pm 12.2 7.4 7.5 73 2.3 NE 22 26 12 14 1007.3 1007.3 0.2
16/05:00pm 12.6 8.4 8.3 75 2.1 NNE 20 26 11 14 1007.5 1007.5 0.2
16/04:30pm 12.4 7.4 7.9 74 2.2 N 24 30 13 16 1007.4 1007.4 0.2
16/04:00pm 12.2 7.9 7.7 74 2.2 NNE 20 26 11 14 1007.6 1007.6 0.2
16/03:30pm 12.2 5.3 7.1 71 2.5 NNE 33 41 18 22 1007.7 1007.7 0.2
16/03:00pm 12.2 5.9 7.3 72 2.4 NNE 30 35 16 19 1007.8 1007.8 0.2
16/02:30pm 12.6 5.9 7.3 70 2.6 NNE 32 39 17 21 1008.1 1008.1 0.2
16/02:00pm 13.4 7.3 6.7 64 3.2 N 28 33 15 18 1008.4 1008.4 0.2
16/01:30pm 13.9 9.1 7.2 64 3.3 N 22 24 12 13 1008.7 1008.7 0.2
16/01:00pm 13.8 8.9 7.1 64 3.3 N 22 26 12 14 1008.8 1008.8 0.2
16/12:30pm 13.5 9.6 7.3 66 3.0 N 17 22 9 12 1009.3 1009.3 0.2
16/12:00pm 13.3 9.2 8.0 70 2.6 N 19 20 10 11 1009.8 1009.8 0.2
16/11:30am 12.5 9.0 7.2 70 2.6 N 15 19 8 10 1010.3 1010.3 0.2
16/11:00am 12.3 9.8 8.2 76 2.0 N 11 15 6 8 1010.8 1010.8 0.0
16/10:30am 11.7 8.9 8.7 82 1.5 N 13 15 7 8 1011.2 1011.2 0.0
16/10:00am 10.6 7.6 7.8 83 1.4 N 13 15 7 8 1011.6 1011.6 0.0
16/09:30am 9.9 6.8 7.3 84 1.2 N 13 15 7 8 1011.8 1011.8 0.0
16/09:00am 9.6 6.4 7.0 84 1.2 NNW 13 15 7 8 1011.9 1011.9 14.4
16/08:30am 9.1 6.7 7.1 87 0.9 NNW 9 13 5 7 1011.9 1011.9 14.4
16/08:00am 8.1 5.5 6.2 88 0.9 NNW 9 11 5 6 1012.1 1012.1 14.4
16/07:30am 7.7 5.5 6.2 90 0.7 NW 7 11 4 6 1012.2 1012.2 14.4
16/07:00am 7.0 3.9 5.6 91 0.6 WNW 11 13 6 7 1012.2 1012.2 14.4
16/06:30am 6.6 4.2 5.2 91 0.6 W 7 9 4 5 1012.1 1012.1 14.4
16/06:00am 7.2 4.9 5.7 90 0.7 NNW 7 9 4 5 1011.7 1011.7 14.4
16/05:30am 6.9 4.2 5.4 90 0.7 NW 9 11 5 6 1011.6 1011.6 14.4
16/05:00am 7.3 5.2 5.8 90 0.7 NNE 6 7 3 4 1011.8 1011.8 14.4
16/04:30am 7.4 5.1 5.7 89 0.8 NW 7 11 4 6 1011.7 1011.7 14.4
16/04:00am 7.5 4.5 5.8 89 0.8 NW 11 15 6 8 1011.8 1011.8 14.4
16/03:30am 7.3 3.9 5.8 90 0.7 WNW 13 17 7 9 1011.8 1011.8 14.4
16/03:00am 7.5 3.7 6.0 90 0.7 WNW 15 17 8 9 1012.1 1012.1 14.4
16/02:30am 7.3 3.9 5.9 91 0.6 WNW 13 15 7 8 1012.1 1012.1 14.4
16/02:00am 7.2 4.1 5.7 90 0.7 WNW 11 13 6 7 1012.1 1012.1 14.4
16/01:30am 7.7 4.4 6.3 91 0.6 NW 13 15 7 8 1012.4 1012.4 14.4
16/01:00am 7.6 4.6 6.2 91 0.6 WNW 11 13 6 7 1012.4 1012.4 14.4
16/12:30am 7.7 5.5 6.2 90 0.7 WNW 7 7 4 4 1012.5 1012.5 14.4
16/12:00am 7.8 5.2 6.3 90 0.7 WNW 9 13 5 7 1012.8 1012.8 14.4
 
Date/Time
EDT
Temp
°C
App
Temp
°C
Dew
Point
°C
Rel
Hum
%
Delta-T
°C
Wind Press
QNH
hPa
Press
MSL
hPa
Rain since
9am
mm
Dir  Spd
km/h
Gust
km/h
Spd
kts
Gust
kts
15/11:30pm 7.9 4.6 6.4 90 0.7 WNW 13 15 7 8 1012.7 1012.7 14.4
15/11:00pm 8.2 5.3 6.3 88 0.9 WNW 11 13 6 7 1012.8 1012.8 14.4
15/10:30pm 8.3 5.3 6.1 86 1.0 WNW 11 13 6 7 1012.6 1012.6 14.4
15/10:00pm 8.8 7.9 6.1 83 1.2 CALM 0 0 0 0 1012.7 1012.7 14.4
15/09:30pm 8.8 7.6 6.3 84 1.2 E 2 6 1 3 1012.7 1012.7 14.4
15/09:00pm 9.1 6.6 6.7 85 1.1 SE 9 13 5 7 1012.6 1012.6 14.4
15/08:30pm 9.0 5.9 7.1 88 0.9 SSE 13 19 7 10 1012.1 1012.1 14.4
15/08:00pm 8.9 6.9 7.2 89 0.8 ESE 7 13 4 7 1011.9 1011.9 14.4
15/07:30pm 8.8 6.4 7.1 89 0.8 SE 9 13 5 7 1011.8 1011.8 14.2
15/07:00pm 9.0 5.2 7.6 91 0.7 SSE 17 20 9 11 1011.6 1011.6 14.0
15/06:30pm 9.1 4.8 7.9 92 0.6 SSE 20 28 11 15 1011.3 1011.3 14.0
15/06:00pm 8.9 5.1 7.7 92 0.6 SSE 17 20 9 11 1011.1 1011.1 13.6
15/05:30pm 9.0 4.6 7.6 91 0.7 S 20 28 11 15 1011.0 1011.0 11.2
15/05:00pm 8.6 4.7 7.2 91 0.7 SE 17 22 9 12 1010.4 1010.4 9.0
15/04:30pm 8.9 6.2 7.5 91 0.7 SE 11 17 6 9 1010.5 1010.5 6.6
15/04:00pm 9.4 6.5 8.0 91 0.7 SE 13 17 7 9 1010.2 1010.2 4.4
15/03:30pm 9.9 7.1 8.5 91 0.7 ESE 13 17 7 9 1010.1 1010.1 2.8
15/03:00pm 10.5 7.0 8.8 89 0.8 SE 17 20 9 11 1010.2 1010.2 1.6
15/02:30pm 10.7 6.7 8.3 85 1.2 SSE 19 20 10 11 1010.5 1010.5 0.8
15/02:00pm 11.6 7.3 7.7 77 1.9 SSE 20 24 11 13 1010.7 1010.7 0.0
15/01:30pm 12.4 8.2 7.5 72 2.4 SE 19 22 10 12 1010.6 1010.6 0.0
15/01:00pm 12.8 9.0 7.7 71 2.5 ESE 17 20 9 11 1010.7 1010.7 0.0
15/12:30pm 13.0 9.0 8.3 73 2.3 E 19 22 10 12 1010.7 1010.7 0.0

Other formats

Comma delimited format used in spreadsheet applications
http://www.bom.gov.au/fwo/IDT60801/IDT60801.95988.axf

JavaScript Object Notation format (JSON) in row-major order
http://www.bom.gov.au/fwo/IDT60801/IDT60801.95988.json

Data quality

Most of these data are generated automatically and are frequently updated. Quality checks on data are not normally performed. It is possible for incorrect values to appear. Refer to information at About Latest Weather Observations and please check the disclaimer before using these data.